Fire Weather Observation
Issued by NWS Grand Junction, CO

Home | Current Version | Previous Version | Text Only | Print | Product List | Glossary Off
Versions: 1 2 3 4 5 6 7 8 9 10 11 12 13 14 15 16 17 18 19 20 21 22 23 24 25 26 27 28 29

000
SHUS65 KGJT 192016
FWOGJT

DAILY FIRE WEATHER OBSERVATION
NATIONAL WEATHER SERVICE GRAND JUNCTION CO
212 PM MDT FRI MAY 19 2017

STATE OF THE WEATHER (W)               7
DRY BULB TEMPERATURE                   54   DEGREES FAHRENHEIT
RELATIVE HUMIDITY (RH)                 45   PERCENT
LIGHTNING ACTIVITY LEVEL
  (LAL - MIDNIGHT TO 2 PM)             1
WIND DIRECTION                         C    DEGREES (C IF CALM)
WIND SPEED                             0    MPH
MAX TEMP (2 PM - 2 PM)                 54   DEGREES FAHRENHEIT
MIN TEMP (2 PM - 2 PM)                 38   DEGREES FAHRENHEIT
MAX RH (2 PM - 2 PM)                   93   PERCENT
MIN RH (2 PM - 2 PM)                   45   PERCENT
PCPN DURATION                          -0.1 HOURS
PCPN AMT (2 PM - 2 PM)                 0.01 INCHES
LAL (2 PM - 2 PM)                      1

$$

METAR KGJT 191953Z 00000KT 10SM SCT055 SCT110 12/01 A3005 RMK
      AO2 RAB1857E1858 SLP152 P0000 T01220006



USA.gov is the U.S. government's official web portal to all federal, state and local government web resources and services.